Norbank — PGIS — position and weather

sailwx.info

Track history (hours):
 
Tides and Currents Weather Stations Pressure Air Temp Water Temp Dewpoint Dewpoint Depression Visibility Wind Speed Wind Dir Waves Ship Positions

Norbank

Operator: P & O Ferries

Last reported at 2017-Sep-21 22:48 UTC. Time now 2017-Sep-22 17:05 UTC.
Position N 53°34' W 003°45'.

Length 167 m; draft 5.6 m.

Type: Ship (hazmat cat A). MMSI: 246213000.

Date/timePositionNaut miles runAvg speedWind from/ knotsBaromVisibWave heightAir tempDewpointWater temp
2017-Sep-21 22:48N 53°34' W 003°45'517.3
2017-Sep-21 22:30N 53°33' W 003°36'917.5
2017-Sep-21 22:00N 53°33' W 003°22'817.0
2017-Sep-21 21:30N 53°32' W 003°08'612.1
2017-Sep-21 21:00N 53°27' W 003°01'0 0.6
2017-Sep-21 20:30N 53°27' W 003°01'0 0.4
2017-Sep-21 20:01N 53°27' W 003°01'0 0.0
2017-Sep-21 19:30N 53°27' W 003°01'0 0.0
2017-Sep-21 19:00N 53°27' W 003°01'0 0.0
2017-Sep-21 18:30N 53°27' W 003°01'0 0.0
2017-Sep-21 18:00N 53°27' W 003°01'0 0.0
2017-Sep-21 17:29N 53°27' W 003°01'0 0.0
2017-Sep-21 16:59N 53°27' W 003°01'0 0.0
2017-Sep-21 16:29N 53°27' W 003°01'0 0.0
2017-Sep-21 15:56N 53°27' W 003°01'0 1.0
2017-Sep-21 15:30N 53°27' W 003°01'1 2.5
2017-Sep-21 15:00N 53°28' W 003°03'713.4
2017-Sep-21 14:30N 53°31' W 003°12'817.1
2017-Sep-21 14:00N 53°31' W 003°27'917.3
2017-Sep-21 13:30N 53°31' W 003°41'917.6
2017-Sep-21 13:00N 53°32' W 003°56'7019.6
2017-Sep-21 09:25N 53°23' W 005°53'818.9
2017-Sep-21 09:00N 53°20' W 006°06'4 8.9
2017-Sep-21 08:30N 53°21' W 006°13'0 0.0
2017-Sep-21 05:10N 53°21' W 006°13'0 0.0
2017-Sep-21 04:55N 53°21' W 006°13'0 0.0
2017-Sep-21 04:28N 53°21' W 006°13'1 2.4
2017-Sep-21 03:55N 53°21' W 006°11'613.8
2017-Sep-21 03:30N 53°21' W 006°01'8418.4
2017-Sep-20 22:58N 53°34' W 003°43'818.0
2017-Sep-20 22:30N 53°34' W 003°29'918.1
2017-Sep-20 22:00N 53°31' W 003°14'815.3
2017-Sep-20 21:30N 53°28' W 003°03'1 2.5
2017-Sep-20 21:00N 53°27' W 003°01'0 0.8
2017-Sep-20 20:25N 53°27' W 003°01'0 0.0
2017-Sep-20 19:58N 53°27' W 003°01'0 0.0
2017-Sep-20 19:28N 53°27' W 003°01'0 0.0
2017-Sep-20 18:58N 53°27' W 003°01'0 0.0
2017-Sep-20 18:25N 53°27' W 003°01'0 0.0
2017-Sep-20 18:00N 53°27' W 003°01'0 0.0
2017-Sep-20 17:30N 53°27' W 003°01'0 0.0
2017-Sep-20 17:00N 53°27' W 003°01'0 0.0
2017-Sep-20 16:30N 53°27' W 003°01'0 0.0
2017-Sep-20 16:00N 53°27' W 003°01'0 0.9
2017-Sep-20 15:30N 53°27' W 003°01'4 7.4
2017-Sep-20 15:00N 53°30' W 003°05'1616.0
2017-Sep-20 14:00N 53°31' W 003°32'918.6
2017-Sep-20 13:30N 53°32' W 003°48'918.5
2017-Sep-20 13:00N 53°35' W 004°02'6717.7
2017-Sep-20 09:14N 53°23' W 005°53'519.7
2017-Sep-20 08:59N 53°21' W 006°00'812.9
2017-Sep-20 08:24N 53°21' W 006°13'0 0.0
2017-Sep-20 04:22N 53°21' W 006°13'0 0.0
2017-Sep-20 04:00N 53°21' W 006°13'3 6.1
2017-Sep-20 03:29N 53°21' W 006°08'817.1
2017-Sep-20 03:00N 53°23' W 005°54'7719.2
2017-Sep-19 22:59N 53°34' W 003°47'918.5
2017-Sep-19 22:30N 53°33' W 003°32'918.3
2017-Sep-19 22:00N 53°32' W 003°17'815.9
2017-Sep-19 21:30N 53°28' W 003°04'2 4.6
2017-Sep-19 21:00N 53°27' W 003°01'0 0.9
2017-Sep-19 20:30N 53°27' W 003°01'0 0.0
2017-Sep-19 20:00N 53°27' W 003°01'0 0.0
2017-Sep-19 19:29N 53°27' W 003°01'0 0.0
2017-Sep-19 18:59N 53°27' W 003°01'0 0.0
2017-Sep-19 18:26N 53°27' W 003°01'0 0.0
2017-Sep-19 17:59N 53°27' W 003°01'0 0.0
2017-Sep-19 17:28N 53°27' W 003°01'0 0.0
2017-Sep-19 16:58N 53°27' W 003°01'0 0.5
2017-Sep-19 16:30N 53°27' W 003°01'0 0.6
2017-Sep-19 16:00N 53°27' W 003°01'0 0.4
2017-Sep-19 15:30N 53°27' W 003°01'0 0.9
2017-Sep-19 15:01N 53°27' W 003°02'612.1
2017-Sep-19 14:30N 53°32' W 003°08'816.6
2017-Sep-19 14:00N 53°31' W 003°22'1019.0
2017-Sep-19 13:30N 53°31' W 003°38'1019.1
2017-Sep-19 13:00N 53°33' W 003°54'919.0
2017-Sep-19 12:30N 53°34' W 004°10'5419.0
2017-Sep-19 09:40N 53°25' W 005°39'819.2
2017-Sep-19 09:14N 53°23' W 005°53'519.6
2017-Sep-19 09:00N 53°21' W 006°00'714.4
2017-Sep-19 08:30N 53°21' W 006°12'1 1.3
2017-Sep-19 08:00N 53°21' W 006°13'0 0.0
2017-Sep-19 07:30N 53°21' W 006°13'0 0.0
2017-Sep-19 07:00N 53°21' W 006°13'0 0.0
2017-Sep-19 06:23N 53°21' W 006°13'0 0.0
2017-Sep-19 05:55N 53°21' W 006°13'0 0.0
2017-Sep-19 05:29N 53°21' W 006°13'0 0.0
2017-Sep-19 04:59N 53°21' W 006°13'0 0.0
2017-Sep-19 04:29N 53°21' W 006°13'0 0.9
2017-Sep-19 04:00N 53°21' W 006°12'713.0
2017-Sep-19 03:28N 53°21' W 006°01'918.6
2017-Sep-19 02:59N 53°25' W 005°47'7420.1
2017-Sep-18 23:19N 53°34' W 003°44'619.7
2017-Sep-18 23:01N 53°33' W 003°34'1019.4
2017-Sep-18 22:30N 53°32' W 003°18'816.7
2017-Sep-18 22:00N 53°29' W 003°05'3 5.4
2017-Sep-18 21:30N 53°27' W 003°01'0 0.8
2017-Sep-18 20:58N 53°27' W 003°01'0 0.0
2017-Sep-18 20:28N 53°27' W 003°01'0 0.0
2017-Sep-18 19:58N 53°27' W 003°01'0 0.0
2017-Sep-18 19:28N 53°27' W 003°01'0 0.0
2017-Sep-18 18:58N 53°27' W 003°01'0 0.0
2017-Sep-18 18:30N 53°27' W 003°01'0 0.0
2017-Sep-18 18:00N 53°27' W 003°01'0 0.0
2017-Sep-18 17:30N 53°27' W 003°01'0 0.0
2017-Sep-18 17:00N 53°27' W 003°01'0 0.0
2017-Sep-18 16:23N 53°27' W 003°01'0 0.0
2017-Sep-18 15:59N 53°27' W 003°01'0 0.0
2017-Sep-18 15:26N 53°27' W 003°01'0 0.0
2017-Sep-18 14:59N 53°27' W 003°01'0 0.0
2017-Sep-18 14:29N 53°27' W 003°01'0 0.0
2017-Sep-18 13:58N 53°27' W 003°01'0 0.0
2017-Sep-18 13:28N 53°27' W 003°01'0 0.0
2017-Sep-18 12:55N 53°27' W 003°01'0 0.0
2017-Sep-18 12:30N 53°27' W 003°01'0 0.0
2017-Sep-18 11:55N 53°27' W 003°01'0 0.0
2017-Sep-18 11:27N 53°27' W 003°01'0 0.0
2017-Sep-18 11:00N 53°27' W 003°01'0 0.0
2017-Sep-18 10:30N 53°27' W 003°01'0 0.0
2017-Sep-18 10:00N 53°27' W 003°01'0 0.0
2017-Sep-18 09:26N 53°27' W 003°01'0 0.0
2017-Sep-18 08:56N 53°27' W 003°01'0 0.0
2017-Sep-18 08:29N 53°27' W 003°01'0 0.0
2017-Sep-18 07:56N 53°27' W 003°01'0 0.0
2017-Sep-18 07:29N 53°27' W 003°01'0 0.0
2017-Sep-18 06:49N 53°27' W 003°01'0 0.0
2017-Sep-18 06:25N 53°27' W 003°01'0 0.0
2017-Sep-18 05:55N 53°27' W 003°01'0 0.0
2017-Sep-18 05:25N 53°27' W 003°01'0 0.0
2017-Sep-18 04:58N 53°27' W 003°01'0 0.9
2017-Sep-18 04:28N 53°27' W 003°01'0 0.4
2017-Sep-18 04:00N 53°27' W 003°01'713.0
2017-Sep-18 03:30N 53°32' W 003°08'816.3
2017-Sep-18 03:00N 53°31' W 003°22'816.0
2017-Sep-18 02:30N 53°31' W 003°35'815.5
2017-Sep-18 02:00N 53°32' W 003°48'815.5
2017-Sep-18 01:30N 53°33' W 004°01'6815.4
2017-Sep-17 21:05N 53°22' W 005°54'116.7
2017-Sep-17 21:00N 53°22' W 005°57'814.8
2017-Sep-17 20:26N 53°21' W 006°11'1 3.3
2017-Sep-17 20:00N 53°21' W 006°13'0 0.0
2017-Sep-17 19:30N 53°21' W 006°13'0 0.0
2017-Sep-17 19:00N 53°21' W 006°13'0 0.0
2017-Sep-17 18:30N 53°21' W 006°13'0 0.0
2017-Sep-17 17:57N 53°21' W 006°13'0 0.0
2017-Sep-17 17:30N 53°21' W 006°13'0 0.0
2017-Sep-17 17:00N 53°21' W 006°13'1 2.2
2017-Sep-17 16:30N 53°21' W 006°11'813.5
2017-Sep-17 15:56N 53°22' W 005°59'817.5
2017-Sep-17 15:28N 53°25' W 005°46'7218.5
2017-Sep-17 11:35N 53°34' W 003°46'319.0
2017-Sep-17 11:26N 53°33' W 003°41'818.8
2017-Sep-17 11:01N 53°33' W 003°28'1018.8
2017-Sep-17 10:30N 53°31' W 003°12'815.7
2017-Sep-17 10:00N 53°27' W 003°01'0 0.1
2017-Sep-17 09:30N 53°27' W 003°01'0 0.7
2017-Sep-17 09:00N 53°27' W 003°01'0 0.3
2017-Sep-17 08:27N 53°27' W 003°01'0 0.0
2017-Sep-17 07:57N 53°27' W 003°01'0 0.0
2017-Sep-17 07:30N 53°27' W 003°01'0 0.0
2017-Sep-17 06:50N 53°27' W 003°01'0 0.0
2017-Sep-17 06:26N 53°27' W 003°01'0 0.0
2017-Sep-17 05:56N 53°27' W 003°01'0 0.0
2017-Sep-17 05:29N 53°27' W 003°01'0 0.0
2017-Sep-17 04:58N 53°27' W 003°01'0 0.0
2017-Sep-17 04:28N 53°27' W 003°01'0 0.9
2017-Sep-17 04:00N 53°27' W 003°01'0 0.2
2017-Sep-17 03:30N 53°27' W 003°01'5 9.4
2017-Sep-17 03:00N 53°30' W 003°06'714.0
2017-Sep-17 02:30N 53°31' W 003°18'918.8
2017-Sep-17 02:00N 53°31' W 003°34'918.5
2017-Sep-17 01:30N 53°31' W 003°49'1019.0
2017-Sep-17 00:59N 53°33' W 004°06'6719.3
2017-Sep-16 21:31N 53°22' W 005°57'019.3
2017-Sep-16 21:30N 53°22' W 005°57'911.5
2017-Sep-16 20:42N 53°21' W 006°12'0 2.3
2017-Sep-16 20:30N 53°21' W 006°13'0 0.0
2017-Sep-16 20:00N 53°21' W 006°13'0 0.0
2017-Sep-16 19:30N 53°21' W 006°13'0 0.0
2017-Sep-16 18:59N 53°21' W 006°13'0 0.0
2017-Sep-16 18:29N 53°21' W 006°13'0 0.0
2017-Sep-16 17:58N 53°21' W 006°13'0 0.0
2017-Sep-16 17:30N 53°21' W 006°13'0 0.0
2017-Sep-16 17:00N 53°21' W 006°13'4 7.6
2017-Sep-16 16:29N 53°20' W 006°07'918.9
2017-Sep-16 15:59N 53°24' W 005°52'7020.9
2017-Sep-16 12:38N 53°35' W 003°55'322.0
2017-Sep-16 12:30N 53°35' W 003°51'1121.8
2017-Sep-16 12:00N 53°33' W 003°33'1020.9
2017-Sep-16 11:30N 53°31' W 003°16'917.0
2017-Sep-16 11:00N 53°28' W 003°03'1 2.2
2017-Sep-16 10:30N 53°27' W 003°01'0 0.9
2017-Sep-16 09:59N 53°27' W 003°01'0 0.0
2017-Sep-16 09:23N 53°27' W 003°01'0 0.0
2017-Sep-16 08:59N 53°27' W 003°01'0 0.0
2017-Sep-16 08:29N 53°27' W 003°01'0 0.0
2017-Sep-16 07:55N 53°27' W 003°01'0 0.0
2017-Sep-16 07:28N 53°27' W 003°01'0 0.0
2017-Sep-16 06:55N 53°27' W 003°01'0 0.0
2017-Sep-16 06:28N 53°27' W 003°01'0 0.0
2017-Sep-16 05:58N 53°27' W 003°01'0 0.0
2017-Sep-16 05:30N 53°27' W 003°01'0 0.0
2017-Sep-16 05:00N 53°27' W 003°01'0 0.0
2017-Sep-16 04:30N 53°27' W 003°01'0 0.7
2017-Sep-16 03:52N 53°27' W 003°01'0 0.2
2017-Sep-16 03:30N 53°27' W 003°01'510.3
2017-Sep-16 03:00N 53°31' W 003°07'917.2
2017-Sep-16 02:30N 53°31' W 003°21'816.8
2017-Sep-16 02:00N 53°30' W 003°35'816.5
2017-Sep-16 01:30N 53°32' W 003°49'816.7
2017-Sep-16 01:00N 53°33' W 004°03'6418.1
2017-Sep-15 21:28N 53°24' W 005°49'918.8
2017-Sep-15 21:00N 53°20' W 006°02'6 3.3
2017-Sep-15 19:02N 53°21' W 006°13'0 0.0
2017-Sep-15 18:56N 53°21' W 006°13'0 0.0
2017-Sep-15 18:25N 53°21' W 006°13'0 0.0
2017-Sep-15 17:43N 53°21' W 006°13'0 0.0
2017-Sep-15 17:28N 53°21' W 006°13'3 6.3
2017-Sep-15 17:00N 53°21' W 006°08'918.6
2017-Sep-15 16:30N 53°23' W 005°53'7720.2
2017-Sep-15 12:42N 53°34' W 003°46'421.5
2017-Sep-15 12:30N 53°34' W 003°39'1121.2
2017-Sep-15 12:00N 53°32' W 003°21'917.9
2017-Sep-15 11:30N 53°31' W 003°06'5 9.4
2017-Sep-15 11:00N 53°27' W 003°01'0 0.7
2017-Sep-15 10:30N 53°27' W 003°01'0 0.2
2017-Sep-15 09:56N 53°27' W 003°01'0 0.0
2017-Sep-15 09:29N 53°27' W 003°01'0 0.0
2017-Sep-15 08:59N 53°27' W 003°01'0 0.0
2017-Sep-15 08:29N 53°27' W 003°01'0 0.0
2017-Sep-15 07:59N 53°27' W 003°01'0 0.8
2017-Sep-15 07:24N 53°27' W 003°01'0 0.5
2017-Sep-15 07:00N 53°27' W 003°01'5 9.1
2017-Sep-15 06:30N 53°30' W 003°06'816.9
2017-Sep-15 06:00N 53°31' W 003°20'816.3
2017-Sep-15 05:30N 53°31' W 003°34'816.0
2017-Sep-15 05:00N 53°31' W 003°47'816.1
2017-Sep-15 04:30N 53°32' W 004°01'6616.1
2017-Sep-15 00:25N 53°23' W 005°50'717.4
2017-Sep-15 00:00N 53°21' W 006°01'7 4.8
2017-Sep-14 22:33N 53°21' W 006°13'0 0.0
2017-Sep-14 19:41N 53°21' W 006°13'0 0.0
2017-Sep-14 19:21N 53°21' W 006°13'2 6.1
2017-Sep-14 19:00N 53°21' W 006°10'1118.6
2017-Sep-14 18:25N 53°24' W 005°52'6919.5
2017-Sep-14 14:53N 53°35' W 003°57'719.0
2017-Sep-14 14:30N 53°34' W 003°45'817.3
2017-Sep-14 14:00N 53°33' W 003°31'917.4
2017-Sep-14 13:30N 53°32' W 003°16'714.7
2017-Sep-14 13:00N 53°29' W 003°05'3 6.1
2017-Sep-14 12:30N 53°27' W 003°01'0 0.0
2017-Sep-14 12:00N 53°27' W 003°01'0 0.9
2017-Sep-14 11:30N 53°27' W 003°01'0 0.0
2017-Sep-14 10:51N 53°27' W 003°01'0 0.0
2017-Sep-14 10:30N 53°27' W 003°01'0 0.0
2017-Sep-14 10:00N 53°27' W 003°01'0 0.0
2017-Sep-14 09:26N 53°27' W 003°01'0 0.0
2017-Sep-14 08:59N 53°27' W 003°01'0 0.0
2017-Sep-14 08:29N 53°27' W 003°01'0 0.0
2017-Sep-14 07:59N 53°27' W 003°01'0 0.8
2017-Sep-14 07:26N 53°27' W 003°01'0 0.4
2017-Sep-14 07:00N 53°27' W 003°01'1 2.6
2017-Sep-14 06:31N 53°28' W 003°03'4 8.1
2017-Sep-14 06:00N 53°31' W 003°07'815.1
2017-Sep-14 05:30N 53°31' W 003°19'816.8
2017-Sep-14 05:00N 53°31' W 003°34'816.6
2017-Sep-14 04:30N 53°31' W 003°47'917.2
2017-Sep-14 04:00N 53°32' W 004°02'6720.3
2017-Sep-14 00:43N 53°23' W 005°53'521.2
2017-Sep-14 00:28N 53°21' W 006°00'714.2
2017-Sep-14 00:00N 53°21' W 006°12'1 0.2
2017-Sep-13 20:50N 53°21' W 006°13'0 0.0
2017-Sep-13 20:20N 53°21' W 006°13'0 0.0
2017-Sep-13 19:44N 53°21' W 006°13'1 2.4
2017-Sep-13 19:28N 53°21' W 006°12'915.6
2017-Sep-13 18:54N 53°22' W 005°58'7720.5
2017-Sep-13 15:08N 53°34' W 003°49'319.9
2017-Sep-13 14:58N 53°34' W 003°44'919.8
2017-Sep-13 14:30N 53°33' W 003°29'918.2
2017-Sep-13 14:00N 53°31' W 003°14'714.6
2017-Sep-13 13:30N 53°28' W 003°03'1 2.5
2017-Sep-13 13:00N 53°27' W 003°01'0 0.9
2017-Sep-13 12:31N 53°27' W 003°01'0 0.0
2017-Sep-13 11:56N 53°27' W 003°01'0 0.0
2017-Sep-13 11:28N 53°27' W 003°01'0 0.0
2017-Sep-13 10:58N 53°27' W 003°01'0 0.0
2017-Sep-13 10:25N 53°27' W 003°01'0 0.0
2017-Sep-13 09:58N 53°27' W 003°01'0 0.0
2017-Sep-13 09:28N 53°27' W 003°01'0 0.0
2017-Sep-13 09:00N 53°27' W 003°01'0 0.0
2017-Sep-13 08:30N 53°27' W 003°01'0 0.9
2017-Sep-13 08:00N 53°27' W 003°01'0 0.3
2017-Sep-13 07:30N 53°27' W 003°01'4 7.3
2017-Sep-13 07:00N 53°30' W 003°05'510.2
2017-Sep-13 06:30N 53°31' W 003°13'816.4
2017-Sep-13 06:00N 53°31' W 003°27'611.5
2017-Sep-13 05:30N 53°31' W 003°37'4 8.2
2017-Sep-13 05:00N 53°31' W 003°44'4 8.3
2017-Sep-13 04:30N 53°31' W 003°51'4 8.5
2017-Sep-13 04:00N 53°32' W 003°58'4 8.6
2017-Sep-13 03:30N 53°32' W 004°05'6712.3
2017-Sep-12 22:04N 53°22' W 005°57'214.2
2017-Sep-12 21:55N 53°21' W 005°60'8 2.8
2017-Sep-12 19:04N 53°21' W 006°13'0 0.0
2017-Sep-12 18:49N 53°21' W 006°13'0 0.0
2017-Sep-12 16:45N 53°21' W 006°13'0 0.3
2017-Sep-12 16:31N 53°21' W 006°13'611.1
2017-Sep-12 16:00N 53°20' W 006°04'8219.4
2017-Sep-12 11:45N 53°34' W 003°47'519.3
2017-Sep-12 11:30N 53°34' W 003°39'1019.2
2017-Sep-12 11:00N 53°33' W 003°23'816.0
2017-Sep-12 10:30N 53°32' W 003°10'714.2
2017-Sep-12 10:00N 53°27' W 003°01'0 0.4
2017-Sep-12 09:30N 53°27' W 003°01'0 0.9
2017-Sep-12 09:00N 53°27' W 003°01'0 0.0
2017-Sep-12 08:29N 53°27' W 003°01'0 0.0
2017-Sep-12 07:53N 53°27' W 003°01'0 0.0
2017-Sep-12 07:28N 53°27' W 003°01'0 0.0
2017-Sep-12 06:58N 53°27' W 003°01'0 0.0
2017-Sep-12 06:28N 53°27' W 003°01'0 0.0
2017-Sep-12 05:58N 53°27' W 003°01'0 0.0
2017-Sep-12 05:12N 53°27' W 003°01'0 0.4
2017-Sep-12 05:00N 53°27' W 003°01'0 0.8
2017-Sep-12 04:30N 53°27' W 003°01'2 4.9
2017-Sep-12 04:00N 53°29' W 003°04'611.7
2017-Sep-12 03:30N 53°31' W 003°13'815.8
2017-Sep-12 03:00N 53°31' W 003°26'714.7
2017-Sep-12 02:30N 53°31' W 003°39'815.4
2017-Sep-12 02:01N 53°32' W 003°52'815.0
2017-Sep-12 01:30N 53°33' W 004°04'  
Track history (hours):
 
Tides and Currents Weather Stations Pressure Air Temp Water Temp Dewpoint Dewpoint Depression Visibility Wind Speed Wind Dir Waves Ship Positions

Norbank

Operator: P & O Ferries

Last reported at 2017-Sep-21 22:48 UTC. Time now 2017-Sep-22 17:05 UTC.
Position N 53°34' W 003°45'.

Length 167 m; draft 5.6 m.

Type: Ship (hazmat cat A). MMSI: 246213000.

Date/timePositionNaut miles runAvg speedWind from/ knotsBaromVisibWave heightAir tempDewpointWater temp
2017-Sep-21 22:48N 53°34' W 003°45'517.3
2017-Sep-21 22:30N 53°33' W 003°36'917.5
2017-Sep-21 22:00N 53°33' W 003°22'817.0
2017-Sep-21 21:30N 53°32' W 003°08'612.1
2017-Sep-21 21:00N 53°27' W 003°01'0 0.6
2017-Sep-21 20:30N 53°27' W 003°01'0 0.4
2017-Sep-21 20:01N 53°27' W 003°01'0 0.0
2017-Sep-21 19:30N 53°27' W 003°01'0 0.0
2017-Sep-21 19:00N 53°27' W 003°01'0 0.0
2017-Sep-21 18:30N 53°27' W 003°01'0 0.0
2017-Sep-21 18:00N 53°27' W 003°01'0 0.0
2017-Sep-21 17:29N 53°27' W 003°01'0 0.0
2017-Sep-21 16:59N 53°27' W 003°01'0 0.0
2017-Sep-21 16:29N 53°27' W 003°01'0 0.0
2017-Sep-21 15:56N 53°27' W 003°01'0 1.0
2017-Sep-21 15:30N 53°27' W 003°01'1 2.5
2017-Sep-21 15:00N 53°28' W 003°03'713.4
2017-Sep-21 14:30N 53°31' W 003°12'817.1
2017-Sep-21 14:00N 53°31' W 003°27'917.3
2017-Sep-21 13:30N 53°31' W 003°41'917.6
2017-Sep-21 13:00N 53°32' W 003°56'7019.6
2017-Sep-21 09:25N 53°23' W 005°53'818.9
2017-Sep-21 09:00N 53°20' W 006°06'4 8.9
2017-Sep-21 08:30N 53°21' W 006°13'0 0.0
2017-Sep-21 05:10N 53°21' W 006°13'0 0.0
2017-Sep-21 04:55N 53°21' W 006°13'0 0.0
2017-Sep-21 04:28N 53°21' W 006°13'1 2.4
2017-Sep-21 03:55N 53°21' W 006°11'613.8
2017-Sep-21 03:30N 53°21' W 006°01'8418.4
2017-Sep-20 22:58N 53°34' W 003°43'818.0
2017-Sep-20 22:30N 53°34' W 003°29'918.1
2017-Sep-20 22:00N 53°31' W 003°14'815.3
2017-Sep-20 21:30N 53°28' W 003°03'1 2.5
2017-Sep-20 21:00N 53°27' W 003°01'0 0.8
2017-Sep-20 20:25N 53°27' W 003°01'0 0.0
2017-Sep-20 19:58N 53°27' W 003°01'0 0.0
2017-Sep-20 19:28N 53°27' W 003°01'0 0.0
2017-Sep-20 18:58N 53°27' W 003°01'0 0.0
2017-Sep-20 18:25N 53°27' W 003°01'0 0.0
2017-Sep-20 18:00N 53°27' W 003°01'0 0.0
2017-Sep-20 17:30N 53°27' W 003°01'0 0.0
2017-Sep-20 17:00N 53°27' W 003°01'0 0.0
2017-Sep-20 16:30N 53°27' W 003°01'0 0.0
2017-Sep-20 16:00N 53°27' W 003°01'0 0.9
2017-Sep-20 15:30N 53°27' W 003°01'4 7.4
2017-Sep-20 15:00N 53°30' W 003°05'1616.0
2017-Sep-20 14:00N 53°31' W 003°32'918.6
2017-Sep-20 13:30N 53°32' W 003°48'918.5
2017-Sep-20 13:00N 53°35' W 004°02'6717.7
2017-Sep-20 09:14N 53°23' W 005°53'519.7
2017-Sep-20 08:59N 53°21' W 006°00'812.9
2017-Sep-20 08:24N 53°21' W 006°13'0 0.0
2017-Sep-20 04:22N 53°21' W 006°13'0 0.0
2017-Sep-20 04:00N 53°21' W 006°13'3 6.1
2017-Sep-20 03:29N 53°21' W 006°08'817.1
2017-Sep-20 03:00N 53°23' W 005°54'7719.2
2017-Sep-19 22:59N 53°34' W 003°47'918.5
2017-Sep-19 22:30N 53°33' W 003°32'918.3
2017-Sep-19 22:00N 53°32' W 003°17'815.9
2017-Sep-19 21:30N 53°28' W 003°04'2 4.6
2017-Sep-19 21:00N 53°27' W 003°01'0 0.9
2017-Sep-19 20:30N 53°27' W 003°01'0 0.0
2017-Sep-19 20:00N 53°27' W 003°01'0 0.0
2017-Sep-19 19:29N 53°27' W 003°01'0 0.0
2017-Sep-19 18:59N 53°27' W 003°01'0 0.0
2017-Sep-19 18:26N 53°27' W 003°01'0 0.0
2017-Sep-19 17:59N 53°27' W 003°01'0 0.0
2017-Sep-19 17:28N 53°27' W 003°01'0 0.0
2017-Sep-19 16:58N 53°27' W 003°01'0 0.5
2017-Sep-19 16:30N 53°27' W 003°01'0 0.6
2017-Sep-19 16:00N 53°27' W 003°01'0 0.4
2017-Sep-19 15:30N 53°27' W 003°01'0 0.9
2017-Sep-19 15:01N 53°27' W 003°02'612.1
2017-Sep-19 14:30N 53°32' W 003°08'816.6
2017-Sep-19 14:00N 53°31' W 003°22'1019.0
2017-Sep-19 13:30N 53°31' W 003°38'1019.1
2017-Sep-19 13:00N 53°33' W 003°54'919.0
2017-Sep-19 12:30N 53°34' W 004°10'5419.0
2017-Sep-19 09:40N 53°25' W 005°39'819.2
2017-Sep-19 09:14N 53°23' W 005°53'519.6
2017-Sep-19 09:00N 53°21' W 006°00'714.4
2017-Sep-19 08:30N 53°21' W 006°12'1 1.3
2017-Sep-19 08:00N 53°21' W 006°13'0 0.0
2017-Sep-19 07:30N 53°21' W 006°13'0 0.0
2017-Sep-19 07:00N 53°21' W 006°13'0 0.0
2017-Sep-19 06:23N 53°21' W 006°13'0 0.0
2017-Sep-19 05:55N 53°21' W 006°13'0 0.0
2017-Sep-19 05:29N 53°21' W 006°13'0 0.0
2017-Sep-19 04:59N 53°21' W 006°13'0 0.0
2017-Sep-19 04:29N 53°21' W 006°13'0 0.9
2017-Sep-19 04:00N 53°21' W 006°12'713.0
2017-Sep-19 03:28N 53°21' W 006°01'918.6
2017-Sep-19 02:59N 53°25' W 005°47'7420.1
2017-Sep-18 23:19N 53°34' W 003°44'619.7
2017-Sep-18 23:01N 53°33' W 003°34'1019.4
2017-Sep-18 22:30N 53°32' W 003°18'816.7
2017-Sep-18 22:00N 53°29' W 003°05'3 5.4
2017-Sep-18 21:30N 53°27' W 003°01'0 0.8
2017-Sep-18 20:58N 53°27' W 003°01'0 0.0
2017-Sep-18 20:28N 53°27' W 003°01'0 0.0
2017-Sep-18 19:58N 53°27' W 003°01'0 0.0
2017-Sep-18 19:28N 53°27' W 003°01'0 0.0
2017-Sep-18 18:58N 53°27' W 003°01'0 0.0
2017-Sep-18 18:30N 53°27' W 003°01'0 0.0
2017-Sep-18 18:00N 53°27' W 003°01'0 0.0
2017-Sep-18 17:30N 53°27' W 003°01'0 0.0
2017-Sep-18 17:00N 53°27' W 003°01'0 0.0
2017-Sep-18 16:23N 53°27' W 003°01'0 0.0
2017-Sep-18 15:59N 53°27' W 003°01'0 0.0
2017-Sep-18 15:26N 53°27' W 003°01'0 0.0
2017-Sep-18 14:59N 53°27' W 003°01'0 0.0
2017-Sep-18 14:29N 53°27' W 003°01'0 0.0
2017-Sep-18 13:58N 53°27' W 003°01'0 0.0
2017-Sep-18 13:28N 53°27' W 003°01'0 0.0
2017-Sep-18 12:55N 53°27' W 003°01'0 0.0
2017-Sep-18 12:30N 53°27' W 003°01'0 0.0
2017-Sep-18 11:55N 53°27' W 003°01'0 0.0
2017-Sep-18 11:27N 53°27' W 003°01'0 0.0
2017-Sep-18 11:00N 53°27' W 003°01'0 0.0
2017-Sep-18 10:30N 53°27' W 003°01'0 0.0
2017-Sep-18 10:00N 53°27' W 003°01'0 0.0
2017-Sep-18 09:26N 53°27' W 003°01'0 0.0
2017-Sep-18 08:56N 53°27' W 003°01'0 0.0
2017-Sep-18 08:29N 53°27' W 003°01'0 0.0
2017-Sep-18 07:56N 53°27' W 003°01'0 0.0
2017-Sep-18 07:29N 53°27' W 003°01'0 0.0
2017-Sep-18 06:49N 53°27' W 003°01'0 0.0
2017-Sep-18 06:25N 53°27' W 003°01'0 0.0
2017-Sep-18 05:55N 53°27' W 003°01'0 0.0
2017-Sep-18 05:25N 53°27' W 003°01'0 0.0
2017-Sep-18 04:58N 53°27' W 003°01'0 0.9
2017-Sep-18 04:28N 53°27' W 003°01'0 0.4
2017-Sep-18 04:00N 53°27' W 003°01'713.0
2017-Sep-18 03:30N 53°32' W 003°08'816.3
2017-Sep-18 03:00N 53°31' W 003°22'816.0
2017-Sep-18 02:30N 53°31' W 003°35'815.5
2017-Sep-18 02:00N 53°32' W 003°48'815.5
2017-Sep-18 01:30N 53°33' W 004°01'6815.4
2017-Sep-17 21:05N 53°22' W 005°54'116.7
2017-Sep-17 21:00N 53°22' W 005°57'814.8
2017-Sep-17 20:26N 53°21' W 006°11'1 3.3
2017-Sep-17 20:00N 53°21' W 006°13'0 0.0
2017-Sep-17 19:30N 53°21' W 006°13'0 0.0
2017-Sep-17 19:00N 53°21' W 006°13'0 0.0
2017-Sep-17 18:30N 53°21' W 006°13'0 0.0
2017-Sep-17 17:57N 53°21' W 006°13'0 0.0
2017-Sep-17 17:30N 53°21' W 006°13'0 0.0
2017-Sep-17 17:00N 53°21' W 006°13'1 2.2
2017-Sep-17 16:30N 53°21' W 006°11'813.5
2017-Sep-17 15:56N 53°22' W 005°59'817.5
2017-Sep-17 15:28N 53°25' W 005°46'7218.5
2017-Sep-17 11:35N 53°34' W 003°46'319.0
2017-Sep-17 11:26N 53°33' W 003°41'818.8
2017-Sep-17 11:01N 53°33' W 003°28'1018.8
2017-Sep-17 10:30N 53°31' W 003°12'815.7
2017-Sep-17 10:00N 53°27' W 003°01'0 0.1
2017-Sep-17 09:30N 53°27' W 003°01'0 0.7
2017-Sep-17 09:00N 53°27' W 003°01'0 0.3
2017-Sep-17 08:27N 53°27' W 003°01'0 0.0
2017-Sep-17 07:57N 53°27' W 003°01'0 0.0
2017-Sep-17 07:30N 53°27' W 003°01'0 0.0
2017-Sep-17 06:50N 53°27' W 003°01'0 0.0
2017-Sep-17 06:26N 53°27' W 003°01'0 0.0
2017-Sep-17 05:56N 53°27' W 003°01'0 0.0
2017-Sep-17 05:29N 53°27' W 003°01'0 0.0
2017-Sep-17 04:58N 53°27' W 003°01'0 0.0
2017-Sep-17 04:28N 53°27' W 003°01'0 0.9
2017-Sep-17 04:00N 53°27' W 003°01'0 0.2
2017-Sep-17 03:30N 53°27' W 003°01'5 9.4
2017-Sep-17 03:00N 53°30' W 003°06'714.0
2017-Sep-17 02:30N 53°31' W 003°18'918.8
2017-Sep-17 02:00N 53°31' W 003°34'918.5
2017-Sep-17 01:30N 53°31' W 003°49'1019.0
2017-Sep-17 00:59N 53°33' W 004°06'6719.3
2017-Sep-16 21:31N 53°22' W 005°57'019.3
2017-Sep-16 21:30N 53°22' W 005°57'911.5
2017-Sep-16 20:42N 53°21' W 006°12'0 2.3
2017-Sep-16 20:30N 53°21' W 006°13'0 0.0
2017-Sep-16 20:00N 53°21' W 006°13'0 0.0
2017-Sep-16 19:30N 53°21' W 006°13'0 0.0
2017-Sep-16 18:59N 53°21' W 006°13'0 0.0
2017-Sep-16 18:29N 53°21' W 006°13'0 0.0
2017-Sep-16 17:58N 53°21' W 006°13'0 0.0
2017-Sep-16 17:30N 53°21' W 006°13'0 0.0
2017-Sep-16 17:00N 53°21' W 006°13'4 7.6
2017-Sep-16 16:29N 53°20' W 006°07'918.9
2017-Sep-16 15:59N 53°24' W 005°52'7020.9
2017-Sep-16 12:38N 53°35' W 003°55'322.0
2017-Sep-16 12:30N 53°35' W 003°51'1121.8
2017-Sep-16 12:00N 53°33' W 003°33'1020.9
2017-Sep-16 11:30N 53°31' W 003°16'917.0
2017-Sep-16 11:00N 53°28' W 003°03'1 2.2
2017-Sep-16 10:30N 53°27' W 003°01'0 0.9
2017-Sep-16 09:59N 53°27' W 003°01'0 0.0
2017-Sep-16 09:23N 53°27' W 003°01'0 0.0
2017-Sep-16 08:59N 53°27' W 003°01'0 0.0
2017-Sep-16 08:29N 53°27' W 003°01'0 0.0
2017-Sep-16 07:55N 53°27' W 003°01'0 0.0
2017-Sep-16 07:28N 53°27' W 003°01'0 0.0
2017-Sep-16 06:55N 53°27' W 003°01'0 0.0
2017-Sep-16 06:28N 53°27' W 003°01'0 0.0
2017-Sep-16 05:58N 53°27' W 003°01'0 0.0
2017-Sep-16 05:30N 53°27' W 003°01'0 0.0
2017-Sep-16 05:00N 53°27' W 003°01'0 0.0
2017-Sep-16 04:30N 53°27' W 003°01'0 0.7
2017-Sep-16 03:52N 53°27' W 003°01'0 0.2
2017-Sep-16 03:30N 53°27' W 003°01'510.3
2017-Sep-16 03:00N 53°31' W 003°07'917.2
2017-Sep-16 02:30N 53°31' W 003°21'816.8
2017-Sep-16 02:00N 53°30' W 003°35'816.5
2017-Sep-16 01:30N 53°32' W 003°49'816.7
2017-Sep-16 01:00N 53°33' W 004°03'6418.1
2017-Sep-15 21:28N 53°24' W 005°49'918.8
2017-Sep-15 21:00N 53°20' W 006°02'6 3.3
2017-Sep-15 19:02N 53°21' W 006°13'0 0.0
2017-Sep-15 18:56N 53°21' W 006°13'0 0.0
2017-Sep-15 18:25N 53°21' W 006°13'0 0.0
2017-Sep-15 17:43N 53°21' W 006°13'0 0.0
2017-Sep-15 17:28N 53°21' W 006°13'3 6.3
2017-Sep-15 17:00N 53°21' W 006°08'918.6
2017-Sep-15 16:30N 53°23' W 005°53'7720.2
2017-Sep-15 12:42N 53°34' W 003°46'421.5
2017-Sep-15 12:30N 53°34' W 003°39'1121.2
2017-Sep-15 12:00N 53°32' W 003°21'917.9
2017-Sep-15 11:30N 53°31' W 003°06'5 9.4
2017-Sep-15 11:00N 53°27' W 003°01'0 0.7
2017-Sep-15 10:30N 53°27' W 003°01'0 0.2
2017-Sep-15 09:56N 53°27' W 003°01'0 0.0
2017-Sep-15 09:29N 53°27' W 003°01'0 0.0
2017-Sep-15 08:59N 53°27' W 003°01'0 0.0
2017-Sep-15 08:29N 53°27' W 003°01'0 0.0
2017-Sep-15 07:59N 53°27' W 003°01'0 0.8
2017-Sep-15 07:24N 53°27' W 003°01'0 0.5
2017-Sep-15 07:00N 53°27' W 003°01'5 9.1
2017-Sep-15 06:30N 53°30' W 003°06'816.9
2017-Sep-15 06:00N 53°31' W 003°20'816.3
2017-Sep-15 05:30N 53°31' W 003°34'816.0
2017-Sep-15 05:00N 53°31' W 003°47'816.1
2017-Sep-15 04:30N 53°32' W 004°01'6616.1
2017-Sep-15 00:25N 53°23' W 005°50'717.4
2017-Sep-15 00:00N 53°21' W 006°01'7 4.8
2017-Sep-14 22:33N 53°21' W 006°13'0 0.0
2017-Sep-14 19:41N 53°21' W 006°13'0 0.0
2017-Sep-14 19:21N 53°21' W 006°13'2 6.1
2017-Sep-14 19:00N 53°21' W 006°10'1118.6
2017-Sep-14 18:25N 53°24' W 005°52'6919.5
2017-Sep-14 14:53N 53°35' W 003°57'719.0
2017-Sep-14 14:30N 53°34' W 003°45'817.3
2017-Sep-14 14:00N 53°33' W 003°31'917.4
2017-Sep-14 13:30N 53°32' W 003°16'714.7
2017-Sep-14 13:00N 53°29' W 003°05'3 6.1
2017-Sep-14 12:30N 53°27' W 003°01'0 0.0
2017-Sep-14 12:00N 53°27' W 003°01'0 0.9
2017-Sep-14 11:30N 53°27' W 003°01'0 0.0
2017-Sep-14 10:51N 53°27' W 003°01'0 0.0
2017-Sep-14 10:30N 53°27' W 003°01'0 0.0
2017-Sep-14 10:00N 53°27' W 003°01'0 0.0
2017-Sep-14 09:26N 53°27' W 003°01'0 0.0
2017-Sep-14 08:59N 53°27' W 003°01'0 0.0
2017-Sep-14 08:29N 53°27' W 003°01'0 0.0
2017-Sep-14 07:59N 53°27' W 003°01'0 0.8
2017-Sep-14 07:26N 53°27' W 003°01'0 0.4
2017-Sep-14 07:00N 53°27' W 003°01'1 2.6
2017-Sep-14 06:31N 53°28' W 003°03'4 8.1
2017-Sep-14 06:00N 53°31' W 003°07'815.1
2017-Sep-14 05:30N 53°31' W 003°19'816.8
2017-Sep-14 05:00N 53°31' W 003°34'816.6
2017-Sep-14 04:30N 53°31' W 003°47'917.2
2017-Sep-14 04:00N 53°32' W 004°02'6720.3
2017-Sep-14 00:43N 53°23' W 005°53'521.2
2017-Sep-14 00:28N 53°21' W 006°00'714.2
2017-Sep-14 00:00N 53°21' W 006°12'1 0.2
2017-Sep-13 20:50N 53°21' W 006°13'0 0.0
2017-Sep-13 20:20N 53°21' W 006°13'0 0.0
2017-Sep-13 19:44N 53°21' W 006°13'1 2.4
2017-Sep-13 19:28N 53°21' W 006°12'915.6
2017-Sep-13 18:54N 53°22' W 005°58'7720.5
2017-Sep-13 15:08N 53°34' W 003°49'319.9
2017-Sep-13 14:58N 53°34' W 003°44'919.8
2017-Sep-13 14:30N 53°33' W 003°29'918.2
2017-Sep-13 14:00N 53°31' W 003°14'714.6
2017-Sep-13 13:30N 53°28' W 003°03'1 2.5
2017-Sep-13 13:00N 53°27' W 003°01'0 0.9
2017-Sep-13 12:31N 53°27' W 003°01'0 0.0
2017-Sep-13 11:56N 53°27' W 003°01'0 0.0
2017-Sep-13 11:28N 53°27' W 003°01'0 0.0
2017-Sep-13 10:58N 53°27' W 003°01'0 0.0
2017-Sep-13 10:25N 53°27' W 003°01'0 0.0
2017-Sep-13 09:58N 53°27' W 003°01'0 0.0
2017-Sep-13 09:28N 53°27' W 003°01'0 0.0
2017-Sep-13 09:00N 53°27' W 003°01'0 0.0
2017-Sep-13 08:30N 53°27' W 003°01'0 0.9
2017-Sep-13 08:00N 53°27' W 003°01'0 0.3
2017-Sep-13 07:30N 53°27' W 003°01'4 7.3
2017-Sep-13 07:00N 53°30' W 003°05'510.2
2017-Sep-13 06:30N 53°31' W 003°13'816.4
2017-Sep-13 06:00N 53°31' W 003°27'611.5
2017-Sep-13 05:30N 53°31' W 003°37'4 8.2
2017-Sep-13 05:00N 53°31' W 003°44'4 8.3
2017-Sep-13 04:30N 53°31' W 003°51'4 8.5
2017-Sep-13 04:00N 53°32' W 003°58'4 8.6
2017-Sep-13 03:30N 53°32' W 004°05'6712.3
2017-Sep-12 22:04N 53°22' W 005°57'214.2
2017-Sep-12 21:55N 53°21' W 005°60'8 2.8
2017-Sep-12 19:04N 53°21' W 006°13'0 0.0
2017-Sep-12 18:49N 53°21' W 006°13'0 0.0
2017-Sep-12 16:45N 53°21' W 006°13'0 0.3
2017-Sep-12 16:31N 53°21' W 006°13'611.1
2017-Sep-12 16:00N 53°20' W 006°04'8219.4
2017-Sep-12 11:45N 53°34' W 003°47'519.3
2017-Sep-12 11:30N 53°34' W 003°39'1019.2
2017-Sep-12 11:00N 53°33' W 003°23'816.0
2017-Sep-12 10:30N 53°32' W 003°10'714.2
2017-Sep-12 10:00N 53°27' W 003°01'0 0.4
2017-Sep-12 09:30N 53°27' W 003°01'0 0.9
2017-Sep-12 09:00N 53°27' W 003°01'0 0.0
2017-Sep-12 08:29N 53°27' W 003°01'0 0.0
2017-Sep-12 07:53N 53°27' W 003°01'0 0.0
2017-Sep-12 07:28N 53°27' W 003°01'0 0.0
2017-Sep-12 06:58N 53°27' W 003°01'0 0.0
2017-Sep-12 06:28N 53°27' W 003°01'0 0.0
2017-Sep-12 05:58N 53°27' W 003°01'0 0.0
2017-Sep-12 05:12N 53°27' W 003°01'0 0.4
2017-Sep-12 05:00N 53°27' W 003°01'0 0.8
2017-Sep-12 04:30N 53°27' W 003°01'2 4.9
2017-Sep-12 04:00N 53°29' W 003°04'611.7
2017-Sep-12 03:30N 53°31' W 003°13'815.8
2017-Sep-12 03:00N 53°31' W 003°26'714.7
2017-Sep-12 02:30N 53°31' W 003°39'815.4
2017-Sep-12 02:01N 53°32' W 003°52'815.0
2017-Sep-12 01:30N 53°33' W 004°04'  

Dump ship's entire track history